Tuesday, September 25, 2018, 7:07 PM EDT
Back to Local

KFVE, Northern Aroostook Regional

Location: Saint Agatha, ME, United States Lat: 47.283
Local Time: 7:07 PM EDT (23:07 GMT) Lon: -68.3
Time Zone: US/Eastern Elev: 987 ft

Show me the last for .
Show Decoded

2018-09-25 18:53 METAR KFVE 252253Z AUTO 17014G22KT 10SM OVC027 13/06 A3027 RMK AO2 SLP255
                 T01280061 =
2018-09-25 17:53 METAR KFVE 252153Z AUTO 16011G21KT 10SM BKN029 OVC110 12/06 A3030 RMK AO2 RAE23
                 SLP264 P0000 T01220056 =
2018-09-25 16:53 METAR KFVE 252053Z AUTO 17013G21KT 10SM -RA OVC100 12/06 A3033 RMK AO2 PK WND
                 17026/2008 RAB12 SLP278 P0000 60000 T01170056 58022 =
2018-09-25 15:53 METAR KFVE 251953Z AUTO 17016G23KT 10SM SCT120 13/03 A3037 RMK AO2 PK WND
                 19027/1857 SLP288 T01330033 =
2018-09-25 14:53 METAR KFVE 251853Z AUTO 19017G26KT 10SM CLR 14/03 A3038 RMK AO2 PK WND
                 18028/1819 SLP291 T01390033 =
2018-09-25 13:53 METAR KFVE 251753Z AUTO 16013G27KT 10SM CLR 14/04 A3040 RMK AO2 PK WND
                 18029/1707 PRESFR SLP298 T01440039 10144 20039 57035 =
2018-09-25 12:53 METAR KFVE 251653Z AUTO 17018G24KT 10SM CLR 12/03 A3044 RMK AO2 PK WND
                 18026/1643 SLP313 T01220028 =
2018-09-25 11:53 METAR KFVE 251553Z AUTO 18018G26KT 10SM CLR 12/01 A3047 RMK AO2 PK WND
                 18026/1552 SLP321 T01170011 =
2018-09-25 10:53 METAR KFVE 251453Z AUTO 17016G21KT 10SM CLR 11/M01 A3051 RMK AO2 SLP335
                 T01061011 58017 =
2018-09-25 09:53 METAR KFVE 251353Z AUTO 17011KT 10SM CLR 09/M01 A3053 RMK AO2 SLP345 T00891011 =
2018-09-25 08:53 METAR KFVE 251253Z AUTO 16012KT 10SM CLR 06/M02 A3055 RMK AO2 SLP352 T00611017 =
2018-09-25 07:53 METAR KFVE 251153Z AUTO 15006KT 10SM CLR 04/M02 A3056 RMK AO2 SLP355 T00391022
                 10039 20011 58008 =
2018-09-25 06:53 METAR KFVE 251053Z AUTO 12006KT 10SM CLR 02/M03 A3057 RMK AO2 SLP359 T00221033 =
2018-09-25 05:53 METAR KFVE 250953Z AUTO 12003KT 10SM CLR 02/M03 A3059 RMK AO2 SLP365 T00171033 =
2018-09-25 04:53 METAR KFVE 250853Z AUTO 11004KT 10SM CLR 02/M03 A3058 RMK AO2 SLP363 T00171033
                 56008 =
2018-09-25 03:53 METAR KFVE 250753Z AUTO 11003KT 10SM CLR 02/M03 A3058 RMK AO2 SLP362 T00221033 =
2018-09-25 02:53 METAR KFVE 250653Z AUTO 10004KT 10SM CLR 03/M03 A3060 RMK AO2 SLP369 T00281028 =
2018-09-25 01:53 METAR KFVE 250553Z AUTO 10005KT 10SM CLR 04/M03 A3061 RMK AO2 SLP371 T00391033
                 10083 20039 56006 =
2018-09-25 00:53 METAR KFVE 250453Z AUTO 11004KT 10SM BKN110 05/M03 A3061 RMK AO2 SLP371
                 T00501028 401221017 =
2018-09-24 23:53 METAR KFVE 250353Z AUTO 09003KT 10SM SCT120 06/M03 A3062 RMK AO2 SLP375
                 T00561033 =
2018-09-24 22:53 METAR KFVE 250253Z AUTO 10004KT 10SM CLR 06/M03 A3063 RMK AO2 SLP378 T00561033
                 51003 =
2018-09-24 21:53 METAR KFVE 250153Z AUTO 10005KT 10SM CLR 07/M04 A3063 RMK AO2 SLP378 T00671044 =
2018-09-24 20:53 METAR KFVE 250053Z AUTO 13004KT 10SM CLR 08/M03 A3062 RMK AO2 SLP376 T00781028 =
2018-09-24 19:53 METAR KFVE 242353Z AUTO 11005KT 10SM CLR 08/M06 A3062 RMK AO2 SLP376 T00831056
                 10122 20083 51015 =

Support USWX by starting your Amazon purchase here.